地図

経路データ

SID SEASON NUMBER BASIN SUBBASIN NAME ISO_TIME NATURE LAT LON WMO_WIND WMO_PRES WMO_AGENCY TRACK_TYPE DIST2LAND LANDFALL IFLAG USA_AGENCY USA_ATCF_ID USA_LAT USA_LON USA_RECORD USA_STATUS USA_WIND USA_PRES USA_SSHS USA_R34_NE USA_R34_SE USA_R34_SW USA_R34_NW USA_R50_NE USA_R50_SE USA_R50_SW USA_R50_NW USA_R64_NE USA_R64_SE USA_R64_SW USA_R64_NW USA_POCI USA_ROCI USA_RMW USA_EYE TOKYO_LAT TOKYO_LON TOKYO_GRADE TOKYO_WIND TOKYO_PRES TOKYO_R50_DIR TOKYO_R50_LONG TOKYO_R50_SHORT TOKYO_R30_DIR TOKYO_R30_LONG TOKYO_R30_SHORT TOKYO_LAND CMA_LAT CMA_LON CMA_CAT CMA_WIND CMA_PRES HKO_LAT HKO_LON HKO_CAT HKO_WIND HKO_PRES NEWDELHI_LAT NEWDELHI_LON NEWDELHI_GRADE NEWDELHI_WIND NEWDELHI_PRES NEWDELHI_CI NEWDELHI_DP NEWDELHI_POCI REUNION_LAT REUNION_LON REUNION_TYPE REUNION_WIND REUNION_PRES REUNION_TNUM REUNION_CI REUNION_RMW REUNION_R34_NE REUNION_R34_SE REUNION_R34_SW REUNION_R34_NW REUNION_R50_NE REUNION_R50_SE REUNION_R50_SW REUNION_R50_NW REUNION_R64_NE REUNION_R64_SE REUNION_R64_SW REUNION_R64_NW BOM_LAT BOM_LON BOM_TYPE BOM_WIND BOM_PRES BOM_TNUM BOM_CI BOM_RMW BOM_R34_NE BOM_R34_SE BOM_R34_SW BOM_R34_NW BOM_R50_NE BOM_R50_SE BOM_R50_SW BOM_R50_NW BOM_R64_NE BOM_R64_SE BOM_R64_SW BOM_R64_NW BOM_ROCI BOM_POCI BOM_EYE BOM_POS_METHOD BOM_PRES_METHOD NADI_LAT NADI_LON NADI_CAT NADI_WIND NADI_PRES WELLINGTON_LAT WELLINGTON_LON WELLINGTON_WIND WELLINGTON_PRES DS824_LAT DS824_LON DS824_STAGE DS824_WIND DS824_PRES TD9636_LAT TD9636_LON TD9636_STAGE TD9636_WIND TD9636_PRES TD9635_LAT TD9635_LON TD9635_WIND TD9635_PRES TD9635_ROCI NEUMANN_LAT NEUMANN_LON NEUMANN_CLASS NEUMANN_WIND NEUMANN_PRES MLC_LAT MLC_LON MLC_CLASS MLC_WIND MLC_PRES USA_GUST BOM_GUST BOM_GUST_PER REUNION_GUST REUNION_GUST_PER USA_SEAHGT USA_SEARAD_NE USA_SEARAD_SE USA_SEARAD_SW USA_SEARAD_NW STORM_SPEED STORM_DIR
1972280N12342 1972 109 NA NA NOT_NAMED 1972-10-05 12:00:00 TS 11.5000 -18.0000 20 hurdat_atl main 164 164 O_____________ hurdat_atl AL171972 11.5000 -18.0000 TD 20 -1 20 267
1972280N12342 1972 109 NA NA NOT_NAMED 1972-10-05 15:00:00 TS 11.4507 -19.0001 main 259 259 P_____________ AL171972 11.4507 -19.0001 TD 22 -1 20 267
1972280N12342 1972 109 NA NA NOT_NAMED 1972-10-05 18:00:00 TS 11.4000 -20.0000 25 hurdat_atl main 365 365 O_____________ hurdat_atl AL171972 11.4000 -20.0000 TD 25 -1 20 267
1972280N12342 1972 109 NA NA NOT_NAMED 1972-10-05 21:00:00 TS 11.3497 -21.0000 main 473 473 P_____________ AL171972 11.3497 -21.0000 TD 25 -1 20 267
1972280N12342 1972 109 NA NA NOT_NAMED 1972-10-06 00:00:00 TS 11.3000 -22.0000 25 hurdat_atl main 579 579 O_____________ hurdat_atl AL171972 11.3000 -22.0000 TD 25 -1 20 267
1972280N12342 1972 109 NA NA NOT_NAMED 1972-10-06 03:00:00 TS 11.2572 -22.9999 main 686 686 P_____________ AL171972 11.2572 -22.9999 TD 25 -1 20 267
1972280N12342 1972 109 NA NA NOT_NAMED 1972-10-06 06:00:00 TS 11.2000 -24.0000 25 hurdat_atl main 795 795 O_____________ hurdat_atl AL171972 11.2000 -24.0000 TD 25 -1 20 265
1972280N12342 1972 109 NA NA NOT_NAMED 1972-10-06 09:00:00 TS 11.0922 -25.0002 main 905 905 P_____________ AL171972 11.0922 -25.0002 TD 27 -1 20 264
1972280N12342 1972 109 NA NA NOT_NAMED 1972-10-06 12:00:00 TS 11.0000 -26.0000 30 hurdat_atl main 1010 1010 O_____________ hurdat_atl AL171972 11.0000 -26.0000 TD 30 -1 20 267
1972280N12342 1972 109 NA NA NOT_NAMED 1972-10-06 15:00:00 TS 10.9847 -26.9998 main 1110 1110 P_____________ AL171972 10.9847 -26.9998 TD 30 -1 20 270
1972280N12342 1972 109 NA NA NOT_NAMED 1972-10-06 18:00:00 TS 11.0000 -28.0000 30 hurdat_atl main 1211 1211 O_____________ hurdat_atl AL171972 11.0000 -28.0000 TD 30 -1 20 270
1972280N12342 1972 109 NA NA NOT_NAMED 1972-10-06 21:00:00 TS 10.9997 -29.0000 main 1314 1314 P_____________ AL171972 10.9997 -29.0000 TD 30 -1 20 270
1972280N12342 1972 109 NA NA NOT_NAMED 1972-10-07 00:00:00 TS 11.0000 -30.0000 30 hurdat_atl main 1417 1417 O_____________ hurdat_atl AL171972 11.0000 -30.0000 TD 30 -1 20 270
1972280N12342 1972 109 NA NA NOT_NAMED 1972-10-07 03:00:00 TS 10.9997 -31.0000 main 1521 1521 P_____________ AL171972 10.9997 -31.0000 TD 30 -1 20 270
1972280N12342 1972 109 NA NA NOT_NAMED 1972-10-07 06:00:00 TS 11.0000 -32.0000 30 hurdat_atl main 1626 1626 O_____________ hurdat_atl AL171972 11.0000 -32.0000 TD 30 -1 20 270
1972280N12342 1972 109 NA NA NOT_NAMED 1972-10-07 09:00:00 TS 10.9852 -33.0600 main 1725 1684 P_____________ AL171972 10.9852 -33.0600 TD 30 -1 20 270
1972280N12342 1972 109 NA NA NOT_NAMED 1972-10-07 12:00:00 TS 11.0000 -34.0000 30 hurdat_atl main 1684 1664 O_____________ hurdat_atl AL171972 11.0000 -34.0000 TD 30 -1 16 273
1972280N12342 1972 109 NA NA NOT_NAMED 1972-10-07 15:00:00 TS 11.0769 -34.6525 main 1667 1656 P_____________ AL171972 11.0769 -34.6525 TD 30 -1 12 280
1972280N12342 1972 109 NA NA NOT_NAMED 1972-10-07 18:00:00 TS 11.2000 -35.2000 30 hurdat_atl main 1659 1651 O_____________ hurdat_atl AL171972 11.2000 -35.2000 TD 30 -1 12 283
1972280N12342 1972 109 NA NA NOT_NAMED 1972-10-07 21:00:00 TS 11.3499 -35.8425 main 1651 1651 P_____________ AL171972 11.3499 -35.8425 TD 30 -1 13 283
1972280N12342 1972 109 NA NA NOT_NAMED 1972-10-08 00:00:00 TS 11.5000 -36.5000 30 hurdat_atl main 1654 1647 O_____________ hurdat_atl AL171972 11.5000 -36.5000 TD 30 -1 13 281
1972280N12342 1972 109 NA NA NOT_NAMED 1972-10-08 03:00:00 TS 11.5999 -37.1576 main 1649 1644 P_____________ AL171972 11.5999 -37.1576 TD 30 -1 13 279
1972280N12342 1972 109 NA NA NOT_NAMED 1972-10-08 06:00:00 TS 11.7000 -37.8000 30 hurdat_atl main 1650 1647 O_____________ hurdat_atl AL171972 11.7000 -37.8000 TD 30 -1 13 281
1972280N12342 1972 109 NA NA NOT_NAMED 1972-10-08 09:00:00 TS 11.8425 -38.4300 main 1650 1605 P_____________ AL171972 11.8425 -38.4300 TD 30 -1 12 284
1972280N12342 1972 109 NA NA NOT_NAMED 1972-10-08 12:00:00 TS 12.0000 -39.0000 30 hurdat_atl main 1605 1574 O_____________ hurdat_atl AL171972 12.0000 -39.0000 TD 30 -1 11 286
1972280N12342 1972 109 NA NA NOT_NAMED 1972-10-08 15:00:00 TS 12.1423 -39.4726 main 1565 1541 P_____________ AL171972 12.1423 -39.4726 TD 30 -1 9 289
1972280N12342 1972 109 NA NA NOT_NAMED 1972-10-08 18:00:00 TS 12.3000 -39.9000 30 hurdat_atl main 1541 1512 O_____________ hurdat_atl AL171972 12.3000 -39.9000 TD 30 -1 9 292
1972280N12342 1972 109 NA NA NOT_NAMED 1972-10-08 21:00:00 TS 12.4925 -40.3575 main 1510 1489 P_____________ AL171972 12.4925 -40.3575 TD 30 -1 10 294
1972280N12342 1972 109 NA NA NOT_NAMED 1972-10-09 00:00:00 TS 12.7000 -40.8000 30 hurdat_atl main 1489 1469 O_____________ hurdat_atl AL171972 12.7000 -40.8000 TD 30 -1 9 296
1972280N12342 1972 109 NA NA NOT_NAMED 1972-10-09 03:00:00 TS 12.8999 -41.2001 main 1469 1451 P_____________ AL171972 12.8999 -41.2001 TD 30 -1 9 297
1972280N12342 1972 109 NA NA NOT_NAMED 1972-10-09 06:00:00 TS 13.1000 -41.6000 30 hurdat_atl main 1451 1427 O_____________ hurdat_atl AL171972 13.1000 -41.6000 TD 30 -1 9 295
1972280N12342 1972 109 NA NA NOT_NAMED 1972-10-09 09:00:00 TS 13.2925 -42.0576 main 1427 1412 P_____________ AL171972 13.2925 -42.0576 TD 30 -1 10 295
1972280N12342 1972 109 NA NA NOT_NAMED 1972-10-09 12:00:00 TS 13.5000 -42.5000 30 hurdat_atl main 1412 1405 O_____________ hurdat_atl AL171972 13.5000 -42.5000 TD 30 -1 9 300
1972280N12342 1972 109 NA NA NOT_NAMED 1972-10-09 15:00:00 TS 13.7423 -42.8576 main 1399 1399 P_____________ AL171972 13.7423 -42.8576 TD 30 -1 8 306
1972280N12342 1972 109 NA NA NOT_NAMED 1972-10-09 18:00:00 TS 14.0000 -43.2000 30 hurdat_atl main 1403 1393 O_____________ hurdat_atl AL171972 14.0000 -43.2000 TD 30 -1 9 305
1972280N12342 1972 109 NA NA NOT_NAMED 1972-10-09 21:00:00 TS 14.2500 -43.5926 main 1393 1392 P_____________ AL171972 14.2500 -43.5926 TD 30 -1 9 303
1972280N12342 1972 109 NA NA NOT_NAMED 1972-10-10 00:00:00 TS 14.5000 -44.0000 30 hurdat_atl main 1394 1388 O_____________ hurdat_atl AL171972 14.5000 -44.0000 TD 30 -1 9 302
1972280N12342 1972 109 NA NA NOT_NAMED 1972-10-10 03:00:00 TS 14.7500 -44.4076 main 1388 1386 P_____________ AL171972 14.7500 -44.4076 TD 30 -1 9 303
1972280N12342 1972 109 NA NA NOT_NAMED 1972-10-10 06:00:00 TS 15.0000 -44.8000 30 hurdat_atl main 1390 1383 O_____________ hurdat_atl AL171972 15.0000 -44.8000 TD 30 -1 9 305
1972280N12342 1972 109 NA NA NOT_NAMED 1972-10-10 09:00:00 TS 15.2499 -45.1576 main 1381 1381 P_____________ AL171972 15.2499 -45.1576 TD 30 -1 8 307
1972280N12342 1972 109 NA NA NOT_NAMED 1972-10-10 12:00:00 TS 15.5000 -45.5000 30 hurdat_atl main 1390 1384 O_____________ hurdat_atl AL171972 15.5000 -45.5000 TD 30 -1 8 307
1972280N12342 1972 109 NA NA NOT_NAMED 1972-10-10 15:00:00 TS 15.7499 -45.8426 main 1391 1388 P_____________ AL171972 15.7499 -45.8426 TD 30 -1 8 307
1972280N12342 1972 109 NA NA NOT_NAMED 1972-10-10 18:00:00 TS 16.0000 -46.2000 30 hurdat_atl main 1396 1391 O_____________ hurdat_atl AL171972 16.0000 -46.2000 TD 30 -1 9 305
1972280N12342 1972 109 NA NA NOT_NAMED 1972-10-10 21:00:00 TS 16.2500 -46.5926 main 1395 1395 P_____________ AL171972 16.2500 -46.5926 TD 30 -1 9 303
1972280N12342 1972 109 NA NA NOT_NAMED 1972-10-11 00:00:00 TS 16.5000 -47.0000 30 hurdat_atl main 1404 1399 O_____________ hurdat_atl AL171972 16.5000 -47.0000 TD 30 -1 9 303
1972280N12342 1972 109 NA NA NOT_NAMED 1972-10-11 03:00:00 TS 16.7500 -47.4076 main 1405 1405 P_____________ AL171972 16.7500 -47.4076 TD 30 -1 9 303
1972280N12342 1972 109 NA NA NOT_NAMED 1972-10-11 06:00:00 TS 17.0000 -47.8000 30 hurdat_atl main 1419 1414 O_____________ hurdat_atl AL171972 17.0000 -47.8000 TD 30 -1 9 305
1972280N12342 1972 109 NA NA NOT_NAMED 1972-10-11 09:00:00 TS 17.2574 -48.1651 main 1433 1428 P_____________ AL171972 17.2574 -48.1651 TD 30 -1 8 307
1972280N12342 1972 109 NA NA NOT_NAMED 1972-10-11 12:00:00 TS 17.5000 -48.5000 30 hurdat_atl main 1439 1434 O_____________ hurdat_atl AL171972 17.5000 -48.5000 TD 30 -1 8 306
1972280N12342 1972 109 NA NA NOT_NAMED 1972-10-11 15:00:00 TS 17.7074 -48.8076 main 1445 1441 P_____________ AL171972 17.7074 -48.8076 TD 30 -1 7 305
1972280N12342 1972 109 NA NA NOT_NAMED 1972-10-11 18:00:00 TS 17.9000 -49.1000 30 hurdat_atl main 1453 1449 O_____________ hurdat_atl AL171972 17.9000 -49.1000 TD 30 -1 7 303
1972280N12342 1972 109 NA NA NOT_NAMED 1972-10-11 21:00:00 TS 18.0700 -49.4002 main 1462 1458 P_____________ AL171972 18.0700 -49.4002 TD 30 -1 7 305
1972280N12342 1972 109 NA NA NOT_NAMED 1972-10-12 00:00:00 TS 18.3000 -49.7000 30 hurdat_atl main 1471 1471 O_____________ hurdat_atl AL171972 18.3000 -49.7000 TD 30 -1 8 317
1972280N12342 1972 109 NA NA NOT_NAMED 1972-10-12 03:00:00 TS 18.6624 -49.9926 main 1483 1477 P_____________ AL171972 18.6624 -49.9926 TD 30 -1 10 325
1972280N12342 1972 109 NA NA NOT_NAMED 1972-10-12 06:00:00 TS 19.1000 -50.3000 30 hurdat_atl main 1484 1481 O_____________ hurdat_atl AL171972 19.1000 -50.3000 TD 30 -1 11 325
1972280N12342 1972 109 NA NA NOT_NAMED 1972-10-12 09:00:00 TS 19.5576 -50.6574 main 1487 1486 P_____________ AL171972 19.5576 -50.6574 TD 30 -1 11 324
1972280N12342 1972 109 NA NA NOT_NAMED 1972-10-12 12:00:00 TS 20.0000 -51.0000 30 hurdat_atl main 1493 1493 O_____________ hurdat_atl AL171972 20.0000 -51.0000 TD 30 -1 10 324
1972280N12342 1972 109 NA NA NOT_NAMED 1972-10-12 15:00:00 TS 20.3574 -51.2653 main 1501 1497 P_____________ AL171972 20.3574 -51.2653 TD 30 -1 8 326
1972280N12342 1972 109 NA NA NOT_NAMED 1972-10-12 18:00:00 TS 20.7000 -51.5000 30 hurdat_atl main 1499 1481 O_____________ hurdat_atl AL171972 20.7000 -51.5000 TD 30 -1 9 329
1972280N12342 1972 109 NA NA NOT_NAMED 1972-10-12 21:00:00 TS 21.1000 -51.7501 main 1474 1460 P_____________ AL171972 21.1000 -51.7501 TD 30 -1 9 330
1972280N12342 1972 109 NA NA NOT_NAMED 1972-10-13 00:00:00 TS 21.5000 -52.0000 30 hurdat_atl main 1462 1446 O_____________ hurdat_atl AL171972 21.5000 -52.0000 TD 30 -1 9 328
1972280N12342 1972 109 NA NA NOT_NAMED 1972-10-13 03:00:00 TS 21.8500 -52.2502 main 1439 1427 P_____________ AL171972 21.8500 -52.2502 TD 30 -1 8 326
1972280N12342 1972 109 NA NA NOT_NAMED 1972-10-13 06:00:00 TS 22.2000 -52.5000 30 hurdat_atl main 1429 1409 O_____________ hurdat_atl AL171972 22.2000 -52.5000 TD 30 -1 9 325
1972280N12342 1972 109 NA NA NOT_NAMED 1972-10-13 09:00:00 TS 22.5476 -52.7726 main 1409 1403 P_____________ AL171972 22.5476 -52.7726 TD 30 -1 9 330
1972280N12342 1972 109 NA NA NOT_NAMED 1972-10-13 12:00:00 TS 23.0000 -53.0000 30 hurdat_atl main 1406 1404 O_____________ hurdat_atl AL171972 23.0000 -53.0000 TD 30 -1 12 344
1972280N12342 1972 109 NA NA NOT_NAMED 1972-10-13 15:00:00 TS 23.6549 -53.1154 main 1425 1425 P_____________ AL171972 23.6549 -53.1154 TD 30 -1 14 353
1972280N12342 1972 109 NA NA NOT_NAMED 1972-10-13 18:00:00 TS 24.4000 -53.2000 30 hurdat_atl main 1447 1447 O_____________ hurdat_atl AL171972 24.4000 -53.2000 TD 30 -1 15 352
1972280N12342 1972 109 NA NA NOT_NAMED 1972-10-13 21:00:00 TS 25.1075 -53.3499 main 1473 1464 P_____________ AL171972 25.1075 -53.3499 TD 30 -1 14 349
1972280N12342 1972 109 NA NA NOT_NAMED 1972-10-14 00:00:00 TS 25.8000 -53.5000 30 hurdat_atl main 1494 1494 O_____________ hurdat_atl AL171972 25.8000 -53.5000 TD 30 -1 14 351
1972280N12342 1972 109 NA NA NOT_NAMED 1972-10-14 03:00:00 TS 26.4499 -53.6004 main 1521 1521 P_____________ AL171972 26.4499 -53.6004 TD 30 -1 13 352
1972280N12342 1972 109 NA NA NOT_NAMED 1972-10-14 06:00:00 TS 27.1000 -53.7000 30 hurdat_atl main 1558 1558 O_____________ hurdat_atl AL171972 27.1000 -53.7000 TD 30 -1 14 348
1972280N12342 1972 109 NA NA NOT_NAMED 1972-10-14 09:00:00 TS 27.8000 -53.9161 main 1590 1590 P_____________ AL171972 27.8000 -53.9161 TD 30 -1 14 349
1972280N12342 1972 109 NA NA NOT_NAMED 1972-10-14 12:00:00 TS 28.5000 -54.0000 30 hurdat_atl main 1632 1632 O_____________ hurdat_atl AL171972 28.5000 -54.0000 TD 30 -1 14 7
1972280N12342 1972 109 NA NA NOT_NAMED 1972-10-14 15:00:00 TS 29.1501 -53.7332 main 1706 1706 P_____________ AL171972 29.1501 -53.7332 TD 30 -1 14 25
1972280N12342 1972 109 NA NA NOT_NAMED 1972-10-14 18:00:00 TS 29.8000 -53.3000 30 hurdat_atl main 1780 1780 O_____________ hurdat_atl AL171972 29.8000 -53.3000 TD 30 -1 15 28
1972280N12342 1972 109 NA NA NOT_NAMED 1972-10-14 21:00:00 TS 30.4925 -52.8998 main 1785 1715 P_____________ AL171972 30.4925 -52.8998 TD 27 -1 16 26
1972280N12342 1972 109 NA NA NOT_NAMED 1972-10-15 00:00:00 TS 31.2000 -52.5000 25 hurdat_atl main 1715 1638 O_____________ hurdat_atl AL171972 31.2000 -52.5000 TD 25 -1 16 25
1972280N12342 1972 109 NA NA NOT_NAMED 1972-10-15 03:00:00 TS 31.8998 -52.1491 main 1638 1562 P_____________ AL171972 31.8998 -52.1491 TD 25 -1 15 23
1972280N12342 1972 109 NA NA NOT_NAMED 1972-10-15 06:00:00 TS 32.6000 -51.8000 25 hurdat_atl main 1562 1487 O_____________ hurdat_atl AL171972 32.6000 -51.8000 TD 25 -1 15 24
1972280N12342 1972 109 NA NA NOT_NAMED 1972-10-15 09:00:00 TS 33.3004 -51.4141 main 1487 1414 P_____________ AL171972 33.3004 -51.4141 TD 22 -1 16 26
1972280N12342 1972 109 NA NA NOT_NAMED 1972-10-15 12:00:00 TS 34.0000 -51.0000 20 hurdat_atl main 1414 O_____________ hurdat_atl AL171972 34.0000 -51.0000 TD 20 -1 16 26

IBTrACS Databaseについて

本データベースは、米国NOAAが公開する1842年以降の世界の熱帯低気圧のベストトラックデータアーカイブInternational Best Track Archive for Climate Stewardship (IBTrACS)を、ウェブで閲覧しやすい形式に変換したものです。

最終更新日:2021-10-21